Check out our new PWSWeather beta!
PWSweather.com
Personal Weather Stations
Station Observations

YeovilGB

Lat: 50.949, Lon: -2.627

Elevation: 70

Station Type: Vantage Pro

http://www.yeovil-weather.me.uk/

High Low Average
Temperature 56.3°F13.5°C 42.7°F5.9°C 49.4°F9.7°C
Dew Point 50.2°F10.1°C 40.8°F4.9°C 46.6°F8.1°C
Winds 9.2 mph 14.8 kmh Calm Calm 1.0 mph SW1.6 kmh SW
Wind Gusts 18.4 mph29.6 kmh -- 3.0 mph4.8 kmh
Humidity 96% 74% 90%
Pressure 29.08 in984.8 mb 28.90 in978.7 mb -
Precipitation 0.10 in2.5 mm - -
Hour Temp Dew Point Humidity Winds Wind Gusts Pressure Precip Precip Rate Daily Precip Total
12:00 AM 45.2°F7.3°C 42.2°F5.7°C 89% Calm Calm -- 28.91 in979.0 mb - 0.00 in0.0 mm 0.00 in0.0 mm
12:10 AM 44.9°F7.2°C 42.1°F5.6°C 90% Calm Calm -- 28.92 in979.3 mb - 0.00 in0.0 mm 0.00 in0.0 mm
12:20 AM 44.7°F7.1°C 41.9°F5.5°C 90% Calm Calm -- 28.92 in979.3 mb - 0.00 in0.0 mm 0.00 in0.0 mm
12:30 AM 44.3°F6.8°C 41.6°F5.3°C 90% Calm Calm -- 28.92 in979.3 mb - 0.00 in0.0 mm 0.00 in0.0 mm
12:40 AM 44.1°F6.7°C 41.6°F5.3°C 91% Calm Calm -- 28.91 in979.0 mb - 0.00 in0.0 mm 0.00 in0.0 mm
12:50 AM 44.0°F6.7°C 41.5°F5.3°C 91% Calm Calm -- 28.91 in979.0 mb - 0.00 in0.0 mm 0.00 in0.0 mm
01:00 AM 43.6°F6.4°C 41.2°F5.1°C 91% Calm Calm -- 28.91 in979.0 mb - 0.00 in0.0 mm 0.00 in0.0 mm
01:10 AM 43.5°F6.4°C 41.3°F5.2°C 92% Calm Calm 2.3 mph3.7 kmh 28.91 in979.0 mb - 0.00 in0.0 mm 0.00 in0.0 mm
01:20 AM 43.5°F6.4°C 41.3°F5.2°C 92% 2.3 mph SSW3.7 kmh SSW 3.5 mph5.6 kmh 28.91 in979.0 mb - 0.00 in0.0 mm 0.00 in0.0 mm
01:30 AM 43.6°F6.4°C 41.4°F5.2°C 92% Calm Calm 2.3 mph3.7 kmh 28.91 in979.0 mb - 0.00 in0.0 mm 0.00 in0.0 mm
01:40 AM 43.6°F6.4°C 41.4°F5.2°C 92% Calm Calm -- 28.91 in979.0 mb - 0.00 in0.0 mm 0.00 in0.0 mm
01:50 AM 43.4°F6.3°C 41.2°F5.1°C 92% Calm Calm -- 28.90 in978.7 mb - 0.00 in0.0 mm 0.00 in0.0 mm
02:00 AM 43.2°F6.2°C 41.0°F5.0°C 92% Calm Calm -- 28.91 in979.0 mb - 0.00 in0.0 mm 0.00 in0.0 mm
02:10 AM 43.2°F6.2°C 41.3°F5.2°C 93% Calm Calm -- 28.91 in979.0 mb - 0.00 in0.0 mm 0.00 in0.0 mm
02:20 AM 43.0°F6.1°C 41.1°F5.1°C 93% Calm Calm -- 28.91 in979.0 mb - 0.00 in0.0 mm 0.00 in0.0 mm
02:30 AM 43.1°F6.2°C 41.2°F5.1°C 93% Calm Calm 2.3 mph3.7 kmh 28.91 in979.0 mb - 0.00 in0.0 mm 0.00 in0.0 mm
02:40 AM 42.9°F6.1°C 41.0°F5.0°C 93% Calm Calm -- 28.91 in979.0 mb - 0.00 in0.0 mm 0.00 in0.0 mm
02:50 AM 42.7°F5.9°C 40.8°F4.9°C 93% Calm Calm -- 28.91 in979.0 mb - 0.00 in0.0 mm 0.00 in0.0 mm
03:00 AM 42.8°F6.0°C 40.9°F4.9°C 93% Calm Calm -- 28.91 in979.0 mb - 0.00 in0.0 mm 0.00 in0.0 mm
03:10 AM 42.9°F6.1°C 41.3°F5.2°C 94% Calm Calm -- 28.91 in979.0 mb - 0.00 in0.0 mm 0.00 in0.0 mm
03:20 AM 43.0°F6.1°C 41.4°F5.2°C 94% Calm Calm 2.3 mph3.7 kmh 28.90 in978.7 mb - 0.00 in0.0 mm 0.00 in0.0 mm
03:30 AM 43.3°F6.3°C 41.7°F5.4°C 94% Calm Calm -- 28.90 in978.7 mb - 0.00 in0.0 mm 0.00 in0.0 mm
03:40 AM 43.4°F6.3°C 41.7°F5.4°C 94% 1.2 mph SSW1.9 kmh SSW -- 28.90 in978.7 mb - 0.00 in0.0 mm 0.00 in0.0 mm
03:50 AM 43.5°F6.4°C 41.9°F5.5°C 94% Calm Calm -- 28.90 in978.7 mb - 0.00 in0.0 mm 0.00 in0.0 mm
04:00 AM 43.6°F6.4°C 42.0°F5.6°C 94% Calm Calm -- 28.91 in979.0 mb - 0.00 in0.0 mm 0.00 in0.0 mm
04:10 AM 43.8°F6.6°C 42.2°F5.7°C 94% Calm Calm -- 28.91 in979.0 mb - 0.00 in0.0 mm 0.00 in0.0 mm
04:20 AM 44.1°F6.7°C 42.5°F5.8°C 94% Calm Calm -- 28.91 in979.0 mb - 0.00 in0.0 mm 0.00 in0.0 mm
04:30 AM 44.6°F7.0°C 43.3°F6.3°C 95% Calm Calm 4.6 mph7.4 kmh 28.91 in979.0 mb - 0.00 in0.0 mm 0.00 in0.0 mm
04:40 AM 45.2°F7.3°C 43.6°F6.4°C 94% Calm Calm -- 28.92 in979.3 mb - 0.00 in0.0 mm 0.00 in0.0 mm
04:50 AM 45.5°F7.5°C 43.9°F6.6°C 94% Calm Calm 4.6 mph7.4 kmh 28.92 in979.3 mb - 0.00 in0.0 mm 0.00 in0.0 mm
05:00 AM 45.9°F7.7°C 44.0°F6.7°C 93% 2.3 mph SSW3.7 kmh SSW 3.5 mph5.6 kmh 28.92 in979.3 mb - 0.00 in0.0 mm 0.00 in0.0 mm
05:10 AM 46.1°F7.8°C 44.2°F6.8°C 93% Calm Calm -- 28.92 in979.3 mb - 0.00 in0.0 mm 0.00 in0.0 mm
05:20 AM 46.5°F8.1°C 44.6°F7.0°C 93% Calm Calm 4.6 mph7.4 kmh 28.92 in979.3 mb - 0.00 in0.0 mm 0.00 in0.0 mm
05:30 AM 46.7°F8.2°C 44.8°F7.1°C 93% Calm Calm -- 28.92 in979.3 mb - 0.00 in0.0 mm 0.00 in0.0 mm
05:40 AM 46.9°F8.3°C 45.0°F7.2°C 93% Calm Calm 4.6 mph7.4 kmh 28.93 in979.7 mb - 0.00 in0.0 mm 0.00 in0.0 mm
05:50 AM 47.4°F8.6°C 45.5°F7.5°C 93% Calm Calm 1.2 mph1.9 kmh 28.93 in979.7 mb - 0.00 in0.0 mm 0.00 in0.0 mm
06:00 AM 47.8°F8.8°C 45.8°F7.7°C 93% Calm Calm -- 28.93 in979.7 mb - 0.00 in0.0 mm 0.00 in0.0 mm
06:10 AM 47.9°F8.8°C 46.0°F7.8°C 93% Calm Calm -- 28.93 in979.7 mb - 0.00 in0.0 mm 0.00 in0.0 mm
06:20 AM 47.9°F8.8°C 46.0°F7.8°C 93% Calm Calm -- 28.93 in979.7 mb - 0.01 in0.3 mm 0.01 in0.3 mm
06:30 AM 47.9°F8.8°C 46.0°F7.8°C 93% Calm Calm -- 28.93 in979.7 mb - 0.00 in0.0 mm 0.01 in0.3 mm
06:40 AM 47.8°F8.8°C 45.9°F7.7°C 93% Calm Calm -- 28.94 in980.0 mb - 0.01 in0.3 mm 0.02 in0.5 mm
06:50 AM 47.9°F8.8°C 46.3°F7.9°C 94% Calm Calm -- 28.94 in980.0 mb - 0.02 in0.5 mm 0.04 in1.0 mm
07:00 AM 48.3°F9.1°C 46.7°F8.2°C 94% Calm Calm -- 28.94 in980.0 mb - 0.02 in0.5 mm 0.06 in1.5 mm
07:10 AM 48.4°F9.1°C 47.0°F8.3°C 95% Calm Calm -- 28.94 in980.0 mb - 0.00 in0.0 mm 0.06 in1.5 mm
07:20 AM 48.3°F9.1°C 46.9°F8.3°C 95% Calm Calm -- 28.94 in980.0 mb - 0.00 in0.0 mm 0.06 in1.5 mm
07:30 AM 48.4°F9.1°C 47.0°F8.3°C 95% Calm Calm -- 28.95 in980.4 mb - 0.00 in0.0 mm 0.06 in1.5 mm
07:40 AM 48.5°F9.2°C 47.1°F8.4°C 95% Calm Calm -- 28.95 in980.4 mb - 0.00 in0.0 mm 0.06 in1.5 mm
07:50 AM 48.7°F9.3°C 47.4°F8.6°C 95% 1.2 mph SW1.9 kmh SW 5.8 mph9.3 kmh 28.96 in980.7 mb - 0.00 in0.0 mm 0.06 in1.5 mm
08:00 AM 49.0°F9.4°C 47.6°F8.7°C 95% Calm Calm -- 28.96 in980.7 mb - 0.00 in0.0 mm 0.06 in1.5 mm
08:10 AM 48.9°F9.4°C 47.5°F8.6°C 95% Calm Calm -- 28.96 in980.7 mb - 0.00 in0.0 mm 0.06 in1.5 mm
08:20 AM 49.0°F9.4°C 47.9°F8.8°C 96% 1.2 mph SW1.9 kmh SW 4.6 mph7.4 kmh 28.96 in980.7 mb - 0.00 in0.0 mm 0.06 in1.5 mm
08:30 AM 49.3°F9.6°C 48.2°F9.0°C 96% Calm Calm -- 28.97 in981.0 mb - 0.00 in0.0 mm 0.06 in1.5 mm
08:40 AM 49.4°F9.7°C 48.3°F9.1°C 96% Calm Calm 2.3 mph3.7 kmh 28.98 in981.4 mb - 0.00 in0.0 mm 0.06 in1.5 mm
08:50 AM 49.5°F9.7°C 48.4°F9.1°C 96% Calm Calm -- 28.98 in981.4 mb - 0.00 in0.0 mm 0.06 in1.5 mm
09:00 AM 49.5°F9.7°C 48.4°F9.1°C 96% Calm Calm 3.5 mph5.6 kmh 28.98 in981.4 mb - 0.00 in0.0 mm 0.06 in1.5 mm
09:10 AM 49.7°F9.8°C 48.6°F9.2°C 96% 2.3 mph SW3.7 kmh SW 3.5 mph5.6 kmh 28.99 in981.7 mb - 0.00 in0.0 mm 0.06 in1.5 mm
09:20 AM 49.9°F9.9°C 48.8°F9.3°C 96% Calm Calm 5.8 mph9.3 kmh 28.99 in981.7 mb - 0.00 in0.0 mm 0.06 in1.5 mm
09:30 AM 49.9°F9.9°C 48.6°F9.2°C 95% Calm Calm 4.6 mph7.4 kmh 28.99 in981.7 mb - 0.00 in0.0 mm 0.06 in1.5 mm
09:40 AM 50.1°F10.1°C 48.7°F9.3°C 95% Calm Calm -- 28.99 in981.7 mb - 0.00 in0.0 mm 0.06 in1.5 mm
09:50 AM 50.2°F10.1°C 48.8°F9.3°C 95% Calm Calm 8.1 mph13.0 kmh 28.99 in981.7 mb - 0.00 in0.0 mm 0.06 in1.5 mm
10:00 AM 50.5°F10.3°C 49.1°F9.5°C 95% 1.2 mph W1.9 kmh W 5.8 mph9.3 kmh 29.00 in982.1 mb - 0.00 in0.0 mm 0.06 in1.5 mm
10:10 AM 50.8°F10.4°C 49.4°F9.7°C 95% Calm Calm 2.3 mph3.7 kmh 29.00 in982.1 mb - 0.00 in0.0 mm 0.06 in1.5 mm
10:20 AM 51.1°F10.6°C 49.4°F9.7°C 94% 2.3 mph WNW3.7 kmh WNW 6.9 mph11.1 kmh 29.01 in982.4 mb - 0.00 in0.0 mm 0.06 in1.5 mm
10:30 AM 51.3°F10.7°C 49.6°F9.8°C 94% 1.2 mph NW1.9 kmh NW 2.3 mph3.7 kmh 29.01 in982.4 mb - 0.00 in0.0 mm 0.06 in1.5 mm
10:40 AM 51.6°F10.9°C 49.6°F9.8°C 93% 1.2 mph WSW1.9 kmh WSW 5.8 mph9.3 kmh 29.01 in982.4 mb - 0.00 in0.0 mm 0.06 in1.5 mm
10:50 AM 51.8°F11.0°C 49.5°F9.7°C 92% Calm Calm -- 29.02 in982.7 mb - 0.00 in0.0 mm 0.06 in1.5 mm
11:00 AM 52.1°F11.2°C 49.8°F9.9°C 92% 3.5 mph WSW5.6 kmh WSW 11.5 mph18.5 kmh 29.02 in982.7 mb - 0.00 in0.0 mm 0.06 in1.5 mm
11:10 AM 52.1°F11.2°C 49.6°F9.8°C 91% 1.2 mph NW1.9 kmh NW 5.8 mph9.3 kmh 29.03 in983.1 mb - 0.00 in0.0 mm 0.06 in1.5 mm
11:20 AM 52.4°F11.3°C 49.8°F9.9°C 91% 4.6 mph NW7.4 kmh NW 8.1 mph13.0 kmh 29.03 in983.1 mb - 0.00 in0.0 mm 0.06 in1.5 mm
11:30 AM 53.0°F11.7°C 49.9°F9.9°C 89% 3.5 mph NW5.6 kmh NW 5.8 mph9.3 kmh 29.04 in983.4 mb - 0.00 in0.0 mm 0.06 in1.5 mm
11:40 AM 53.6°F12.0°C 50.1°F10.1°C 88% 2.3 mph NW3.7 kmh NW 6.9 mph11.1 kmh 29.04 in983.4 mb - 0.00 in0.0 mm 0.06 in1.5 mm
11:50 AM 53.5°F11.9°C 50.0°F10.0°C 88% 1.2 mph W1.9 kmh W 5.8 mph9.3 kmh 29.04 in983.4 mb - 0.00 in0.0 mm 0.06 in1.5 mm
12:00 PM 53.8°F12.1°C 49.7°F9.8°C 86% 1.2 mph W1.9 kmh W 6.9 mph11.1 kmh 29.04 in983.4 mb - 0.00 in0.0 mm 0.06 in1.5 mm
12:10 PM 54.0°F12.2°C 49.9°F9.9°C 86% 3.5 mph NW5.6 kmh NW 8.1 mph13.0 kmh 29.04 in983.4 mb - 0.00 in0.0 mm 0.06 in1.5 mm
12:20 PM 54.8°F12.7°C 50.0°F10.0°C 84% 6.9 mph WSW11.1 kmh WSW 11.5 mph18.5 kmh 29.04 in983.4 mb - 0.00 in0.0 mm 0.06 in1.5 mm
12:30 PM 55.3°F12.9°C 49.6°F9.8°C 81% 3.5 mph NW5.6 kmh NW 9.2 mph14.8 kmh 29.05 in983.7 mb - 0.00 in0.0 mm 0.06 in1.5 mm
12:40 PM 55.4°F13.0°C 49.3°F9.6°C 80% 4.6 mph NW7.4 kmh NW 5.8 mph9.3 kmh 29.05 in983.7 mb - 0.00 in0.0 mm 0.06 in1.5 mm
12:50 PM 55.3°F12.9°C 49.2°F9.6°C 80% 3.5 mph NW5.6 kmh NW 2.3 mph3.7 kmh 29.05 in983.7 mb - 0.00 in0.0 mm 0.06 in1.5 mm
01:00 PM 55.4°F13.0°C 49.6°F9.8°C 81% Calm Calm -- 29.05 in983.7 mb - 0.00 in0.0 mm 0.06 in1.5 mm
01:10 PM 55.4°F13.0°C 49.4°F9.7°C 80% 1.2 mph WSW1.9 kmh WSW 8.1 mph13.0 kmh 29.05 in983.7 mb - 0.00 in0.0 mm 0.06 in1.5 mm
01:20 PM 55.7°F13.2°C 48.9°F9.4°C 78% 1.2 mph NW1.9 kmh NW 9.2 mph14.8 kmh 29.05 in983.7 mb - 0.00 in0.0 mm 0.06 in1.5 mm
01:30 PM 56.3°F13.5°C 48.5°F9.2°C 75% 3.5 mph WSW5.6 kmh WSW 6.9 mph11.1 kmh 29.05 in983.7 mb - 0.00 in0.0 mm 0.06 in1.5 mm
01:40 PM 56.2°F13.4°C 48.0°F8.9°C 74% Calm Calm -- 29.05 in983.7 mb - 0.00 in0.0 mm 0.06 in1.5 mm
01:50 PM 55.9°F13.3°C 48.4°F9.1°C 76% 1.2 mph W1.9 kmh W 4.6 mph7.4 kmh 29.05 in983.7 mb - 0.00 in0.0 mm 0.06 in1.5 mm
02:00 PM 55.6°F13.1°C 48.2°F9.0°C 76% Calm Calm -- 29.04 in983.4 mb - 0.00 in0.0 mm 0.06 in1.5 mm
02:10 PM 55.3°F12.9°C 48.2°F9.0°C 77% 1.2 mph NW1.9 kmh NW 4.6 mph7.4 kmh 29.05 in983.7 mb - 0.00 in0.0 mm 0.06 in1.5 mm
02:20 PM 55.1°F12.8°C 48.3°F9.1°C 78% Calm Calm -- 29.04 in983.4 mb - 0.00 in0.0 mm 0.06 in1.5 mm
02:30 PM 55.0°F12.8°C 48.6°F9.2°C 79% 1.2 mph NW1.9 kmh NW -- 29.05 in983.7 mb - 0.00 in0.0 mm 0.06 in1.5 mm
02:40 PM 55.0°F12.8°C 48.9°F9.4°C 80% Calm Calm -- 29.05 in983.7 mb - 0.00 in0.0 mm 0.06 in1.5 mm
02:50 PM 54.9°F12.7°C 48.8°F9.3°C 80% Calm Calm -- 29.05 in983.7 mb - 0.00 in0.0 mm 0.06 in1.5 mm
03:00 PM 55.1°F12.8°C 49.4°F9.7°C 81% Calm Calm -- 29.05 in983.7 mb - 0.00 in0.0 mm 0.06 in1.5 mm
03:10 PM 55.4°F13.0°C 49.3°F9.6°C 80% Calm Calm -- 29.05 in983.7 mb - 0.00 in0.0 mm 0.06 in1.5 mm
03:20 PM 55.2°F12.9°C 49.2°F9.6°C 80% Calm Calm -- 29.05 in983.7 mb - 0.00 in0.0 mm 0.06 in1.5 mm
03:30 PM 55.3°F12.9°C 49.2°F9.6°C 80% Calm Calm -- 29.05 in983.7 mb - 0.00 in0.0 mm 0.06 in1.5 mm
03:40 PM 55.2°F12.9°C 49.1°F9.5°C 80% Calm Calm -- 29.05 in983.7 mb - 0.00 in0.0 mm 0.06 in1.5 mm
03:50 PM 55.0°F12.8°C 49.3°F9.6°C 81% Calm Calm -- 29.05 in983.7 mb - 0.00 in0.0 mm 0.06 in1.5 mm
04:00 PM 54.8°F12.7°C 49.4°F9.7°C 82% Calm Calm -- 29.05 in983.7 mb - 0.00 in0.0 mm 0.06 in1.5 mm
04:10 PM 54.5°F12.5°C 49.1°F9.5°C 82% Calm Calm 2.3 mph3.7 kmh 29.05 in983.7 mb - 0.00 in0.0 mm 0.06 in1.5 mm
04:20 PM 54.3°F12.4°C 49.2°F9.6°C 83% 3.5 mph SW5.6 kmh SW 6.9 mph11.1 kmh 29.06 in984.1 mb - 0.00 in0.0 mm 0.06 in1.5 mm
04:30 PM 53.9°F12.2°C 49.5°F9.7°C 85% 4.6 mph SSW7.4 kmh SSW 8.1 mph13.0 kmh 29.06 in984.1 mb - 0.00 in0.0 mm 0.06 in1.5 mm
04:40 PM 53.1°F11.7°C 49.6°F9.8°C 88% Calm Calm -- 29.06 in984.1 mb - 0.01 in0.3 mm 0.06 in1.5 mm
04:50 PM 52.6°F11.4°C 49.8°F9.9°C 90% Calm Calm -- 29.06 in984.1 mb - 0.00 in0.0 mm 0.06 in1.5 mm
05:00 PM 52.3°F11.3°C 49.8°F9.9°C 91% Calm Calm -- 29.06 in984.1 mb - 0.01 in0.3 mm 0.07 in1.8 mm
05:10 PM 52.1°F11.2°C 49.9°F9.9°C 92% Calm Calm 2.3 mph3.7 kmh 29.06 in984.1 mb - 0.01 in0.3 mm 0.08 in2.0 mm
05:20 PM 52.0°F11.1°C 50.0°F10.0°C 93% Calm Calm -- 29.06 in984.1 mb - 0.02 in0.5 mm 0.09 in2.3 mm
05:30 PM 51.9°F11.1°C 49.9°F9.9°C 93% 1.2 mph SW1.9 kmh SW 5.8 mph9.3 kmh 29.06 in984.1 mb - 0.00 in0.0 mm 0.09 in2.3 mm
05:40 PM 51.9°F11.1°C 50.2°F10.1°C 94% 1.2 mph SW1.9 kmh SW -- 29.06 in984.1 mb - 0.01 in0.3 mm 0.10 in2.5 mm
05:50 PM 51.9°F11.1°C 50.2°F10.1°C 94% 9.2 mph SW14.8 kmh SW 11.5 mph18.5 kmh 29.07 in984.4 mb - 0.00 in0.0 mm 0.10 in2.5 mm
06:00 PM 51.7°F10.9°C 50.0°F10.0°C 94% 3.5 mph SW5.6 kmh SW 10.4 mph16.7 kmh 29.07 in984.4 mb - 0.00 in0.0 mm 0.10 in2.5 mm
06:10 PM 51.5°F10.8°C 49.8°F9.9°C 94% 3.5 mph SSW5.6 kmh SSW 8.1 mph13.0 kmh 29.07 in984.4 mb - 0.00 in0.0 mm 0.10 in2.5 mm
06:20 PM 51.4°F10.8°C 49.7°F9.8°C 94% 4.6 mph SW7.4 kmh SW 11.5 mph18.5 kmh 29.08 in984.8 mb - 0.00 in0.0 mm 0.10 in2.5 mm
06:30 PM 51.0°F10.6°C 49.0°F9.4°C 93% 5.8 mph SW9.3 kmh SW 18.4 mph29.6 kmh 29.08 in984.8 mb - 0.00 in0.0 mm 0.10 in2.5 mm
06:40 PM 50.7°F10.4°C 48.7°F9.3°C 93% 4.6 mph SW7.4 kmh SW 11.5 mph18.5 kmh 29.08 in984.8 mb - 0.00 in0.0 mm 0.10 in2.5 mm
06:50 PM 50.6°F10.3°C 48.7°F9.3°C 93% Calm Calm 6.9 mph11.1 kmh 29.08 in984.8 mb - 0.00 in0.0 mm 0.10 in2.5 mm
07:00 PM 50.5°F10.3°C 48.3°F9.1°C 92% 2.3 mph SSW3.7 kmh SSW 12.7 mph20.4 kmh 29.08 in984.8 mb - 0.00 in0.0 mm 0.10 in2.5 mm
07:10 PM 50.3°F10.2°C 48.1°F8.9°C 92% 1.2 mph SSW1.9 kmh SSW 12.7 mph20.4 kmh 29.08 in984.8 mb - 0.00 in0.0 mm 0.10 in2.5 mm
07:20 PM 50.1°F10.1°C 47.6°F8.7°C 91% 1.2 mph SW1.9 kmh SW 11.5 mph18.5 kmh 29.08 in984.8 mb - 0.00 in0.0 mm 0.10 in2.5 mm
07:30 PM 49.9°F9.9°C 47.4°F8.6°C 91% 2.3 mph SSW3.7 kmh SSW 10.4 mph16.7 kmh 29.08 in984.8 mb - 0.00 in0.0 mm 0.10 in2.5 mm
07:50 PM 49.2°F9.6°C 46.7°F8.2°C 91% 2.3 mph SSW3.7 kmh SSW 11.5 mph18.5 kmh 29.07 in984.4 mb - 0.00 in0.0 mm 0.10 in2.5 mm
08:00 PM 48.9°F9.4°C 46.4°F8.0°C 91% 2.3 mph SW3.7 kmh SW 8.1 mph13.0 kmh 29.07 in984.4 mb - 0.00 in0.0 mm 0.10 in2.5 mm
08:10 PM 48.6°F9.2°C 46.1°F7.8°C 91% 3.5 mph SW5.6 kmh SW 9.2 mph14.8 kmh 29.07 in984.4 mb - 0.00 in0.0 mm 0.10 in2.5 mm
08:20 PM 48.4°F9.1°C 45.9°F7.7°C 91% 2.3 mph SSW3.7 kmh SSW 9.2 mph14.8 kmh 29.07 in984.4 mb - 0.00 in0.0 mm 0.10 in2.5 mm
08:30 PM 48.3°F9.1°C 45.8°F7.7°C 91% 1.2 mph SW1.9 kmh SW 4.6 mph7.4 kmh 29.08 in984.8 mb - 0.00 in0.0 mm 0.10 in2.5 mm
08:40 PM 48.1°F8.9°C 45.6°F7.6°C 91% Calm Calm 3.5 mph5.6 kmh 29.07 in984.4 mb - 0.00 in0.0 mm 0.10 in2.5 mm
08:50 PM 47.8°F8.8°C 45.3°F7.4°C 91% Calm Calm -- 29.07 in984.4 mb - 0.00 in0.0 mm 0.10 in2.5 mm
09:00 PM 47.7°F8.7°C 45.2°F7.3°C 91% Calm Calm 1.2 mph1.9 kmh 29.07 in984.4 mb - 0.00 in0.0 mm 0.10 in2.5 mm
09:10 PM 47.8°F8.8°C 45.3°F7.4°C 91% Calm Calm -- 29.07 in984.4 mb - 0.00 in0.0 mm 0.10 in2.5 mm
09:20 PM 48.0°F8.9°C 45.5°F7.5°C 91% Calm Calm 1.2 mph1.9 kmh 29.07 in984.4 mb - 0.00 in0.0 mm 0.10 in2.5 mm
09:30 PM 48.1°F8.9°C 45.6°F7.6°C 91% Calm Calm -- 29.06 in984.1 mb - 0.00 in0.0 mm 0.10 in2.5 mm
09:40 PM 48.2°F9.0°C 45.7°F7.6°C 91% Calm Calm -- 29.06 in984.1 mb - 0.00 in0.0 mm 0.10 in2.5 mm
09:50 PM 48.5°F9.2°C 46.0°F7.8°C 91% 1.2 mph SSW1.9 kmh SSW 6.9 mph11.1 kmh 29.06 in984.1 mb - 0.00 in0.0 mm 0.10 in2.5 mm
10:00 PM 48.7°F9.3°C 46.2°F7.9°C 91% Calm Calm 3.5 mph5.6 kmh 29.06 in984.1 mb - 0.00 in0.0 mm 0.10 in2.5 mm
10:10 PM 48.8°F9.3°C 46.3°F7.9°C 91% Calm Calm -- 29.05 in983.7 mb - 0.00 in0.0 mm 0.10 in2.5 mm
10:20 PM 48.9°F9.4°C 46.4°F8.0°C 91% Calm Calm -- 29.05 in983.7 mb - 0.00 in0.0 mm 0.10 in2.5 mm
10:30 PM 48.9°F9.4°C 46.4°F8.0°C 91% Calm Calm -- 29.05 in983.7 mb - 0.00 in0.0 mm 0.10 in2.5 mm
10:40 PM 48.9°F9.4°C 46.4°F8.0°C 91% Calm Calm -- 29.04 in983.4 mb - 0.00 in0.0 mm 0.10 in2.5 mm
10:50 PM 48.9°F9.4°C 46.4°F8.0°C 91% Calm Calm -- 29.03 in983.1 mb - 0.00 in0.0 mm 0.10 in2.5 mm
11:00 PM 48.9°F9.4°C 46.4°F8.0°C 91% Calm Calm -- 29.03 in983.1 mb - 0.00 in0.0 mm 0.10 in2.5 mm
11:10 PM 48.9°F9.4°C 46.4°F8.0°C 91% Calm Calm -- 29.02 in982.7 mb - 0.00 in0.0 mm 0.10 in2.5 mm
11:20 PM 48.9°F9.4°C 46.4°F8.0°C 91% Calm Calm -- 29.02 in982.7 mb - 0.00 in0.0 mm 0.10 in2.5 mm
11:30 PM 48.9°F9.4°C 46.4°F8.0°C 91% Calm Calm -- 29.02 in982.7 mb - 0.00 in0.0 mm 0.10 in2.5 mm
11:40 PM 48.9°F9.4°C 46.7°F8.2°C 92% Calm Calm -- 29.02 in982.7 mb - 0.00 in0.0 mm 0.10 in2.5 mm
11:50 PM 49.0°F9.4°C 46.8°F8.2°C 92% Calm Calm -- 29.02 in982.7 mb - 0.00 in0.0 mm 0.10 in2.5 mm